Napoles — 5BGU4 — position and weather

sailwx.info

Track history (hours):
 
Tides and Currents Weather Stations Pressure Air Temp Water Temp Dewpoint Dewpoint Depression Visibility Wind Speed Wind Dir Waves Ship Positions

Napoles

Last reported at 2018-May-24 21:32 UTC. Time now 2018-May-25 02:47 UTC.
Position N 41°03' E 002°06'.

Length 186 m; draft 6.2 m.

Type: Ship. MMSI: 209106000.

Date/timePositionNaut miles runAvg speedWind from/ knotsBaromVisibWave heightAir tempDewpointWater temp
2018-May-24 21:32N 41°03' E 002°06'520.3
2018-May-24 21:17N 41°08' E 002°07'620.2
2018-May-24 21:00N 41°14' E 002°09'714.5
2018-May-24 20:30N 41°21' E 002°10'0 0.2
2018-May-24 20:00N 41°21' E 002°10'0 0.0
2018-May-24 19:30N 41°21' E 002°10'0 0.0
2018-May-24 19:00N 41°21' E 002°10'0 0.0
2018-May-24 18:30N 41°21' E 002°10'0 0.0
2018-May-24 18:00N 41°21' E 002°10'0 0.0
2018-May-24 17:30N 41°21' E 002°10'0 0.0
2018-May-24 17:00N 41°21' E 002°10'3 6.1
2018-May-24 16:30N 41°18' E 002°11'714.5
2018-May-24 16:00N 41°10' E 002°10'1018.9
2018-May-24 15:30N 41°01' E 002°08'918.0
2018-May-24 15:00N 40°52' E 002°06'11619.2
2018-May-24 08:57N 38°58' E 001°39'919.4
2018-May-24 08:30N 38°54' E 001°29'2 3.2
2018-May-24 08:00N 38°54' E 001°27'0 0.0
2018-May-24 06:51N 38°54' E 001°27'0 0.0
2018-May-24 06:29N 38°54' E 001°27'0 0.0
2018-May-24 05:58N 38°54' E 001°27'0 0.0
2018-May-24 05:29N 38°54' E 001°27'0 0.1
2018-May-24 04:43N 38°54' E 001°27'1 2.3
2018-May-24 04:28N 38°54' E 001°27'817.6
2018-May-24 04:00N 38°57' E 001°37'13219.1
2018-May-23 21:06N 41°07' E 002°09'219.5
2018-May-23 21:00N 41°09' E 002°09'919.0
2018-May-23 20:30N 41°18' E 002°10'3 5.1
2018-May-23 20:01N 41°21' E 002°10'0 0.0
2018-May-23 19:30N 41°21' E 002°10'0 0.0
2018-May-23 19:01N 41°21' E 002°10'0 0.0
2018-May-23 18:30N 41°21' E 002°10'0 0.0
2018-May-23 18:01N 41°21' E 002°10'0 0.0
2018-May-23 17:30N 41°21' E 002°10'1 1.5
2018-May-23 16:59N 41°20' E 002°10'4 8.5
2018-May-23 16:30N 41°16' E 002°11'916.7
2018-May-23 16:00N 41°08' E 002°09'12818.7
2018-May-23 09:11N 39°02' E 001°42'418.8
2018-May-23 09:00N 38°59' E 001°40'918.7
2018-May-23 08:30N 38°54' E 001°29'2 3.2
2018-May-23 07:59N 38°54' E 001°27'0 0.0
2018-May-23 07:27N 38°54' E 001°27'0 0.0
2018-May-23 06:58N 38°54' E 001°27'0 0.0
2018-May-23 06:29N 38°54' E 001°27'0 0.0
2018-May-23 05:57N 38°54' E 001°27'0 0.2
2018-May-23 04:44N 38°54' E 001°27'1 5.5
2018-May-23 04:30N 38°54' E 001°28'714.8
2018-May-23 04:01N 38°57' E 001°36'13019.5
2018-May-22 21:22N 41°05' E 002°07'720.2
2018-May-22 21:00N 41°12' E 002°09'816.9
2018-May-22 20:30N 41°20' E 002°10'1 2.1
2018-May-22 20:00N 41°21' E 002°10'0 0.0
2018-May-22 19:30N 41°21' E 002°10'0 0.0
2018-May-22 19:00N 41°21' E 002°10'0 0.0
2018-May-22 18:30N 41°21' E 002°10'0 0.0
2018-May-22 18:00N 41°21' E 002°10'0 0.0
2018-May-22 17:31N 41°21' E 002°10'0 0.0
2018-May-22 17:00N 41°21' E 002°10'1 2.0
2018-May-22 16:28N 41°20' E 002°10'714.4
2018-May-22 16:00N 41°13' E 002°11'13319.6
2018-May-22 09:13N 39°02' E 001°42'521.0
2018-May-22 08:59N 38°58' E 001°38'1018.3
2018-May-22 08:27N 38°54' E 001°27'0 0.6
2018-May-22 07:59N 38°54' E 001°27'0 0.0
2018-May-22 07:19N 38°54' E 001°27'0 0.0
2018-May-22 06:56N 38°54' E 001°27'0 0.0
2018-May-22 06:23N 38°54' E 001°27'0 0.0
2018-May-22 06:00N 38°54' E 001°27'0 0.0
2018-May-22 05:27N 38°54' E 001°27'0 0.0
2018-May-22 05:00N 38°54' E 001°27'0 0.4
2018-May-22 04:29N 38°54' E 001°27'712.9
2018-May-22 03:59N 38°56' E 001°35'13019.8
2018-May-21 21:25N 41°03' E 002°06'820.2
2018-May-21 21:00N 41°12' E 002°09'815.5
2018-May-21 20:30N 41°19' E 002°10'2 3.1
2018-May-21 20:01N 41°21' E 002°10'0 0.0
2018-May-21 19:29N 41°21' E 002°10'0 0.0
2018-May-21 19:00N 41°21' E 002°10'0 0.0
2018-May-21 18:30N 41°21' E 002°10'0 0.0
2018-May-21 18:00N 41°21' E 002°10'0 0.0
2018-May-21 17:31N 41°21' E 002°10'0 0.0
2018-May-21 16:59N 41°21' E 002°10'0 0.0
2018-May-21 16:30N 41°21' E 002°10'0 0.0
2018-May-21 16:00N 41°21' E 002°10'0 0.0
2018-May-21 15:31N 41°21' E 002°10'0 0.0
2018-May-21 14:57N 41°21' E 002°10'0 0.0
2018-May-21 14:30N 41°21' E 002°10'0 0.0
2018-May-21 14:00N 41°21' E 002°10'0 0.0
2018-May-21 13:30N 41°21' E 002°10'0 0.0
2018-May-21 13:00N 41°21' E 002°10'0 0.0
2018-May-21 12:30N 41°21' E 002°10'0 0.0
2018-May-21 12:00N 41°21' E 002°10'0 0.0
2018-May-21 11:31N 41°21' E 002°10'0 0.0
2018-May-21 11:01N 41°21' E 002°10'0 0.0
2018-May-21 10:30N 41°21' E 002°10'0 0.0
2018-May-21 10:00N 41°21' E 002°10'0 0.0
2018-May-21 09:30N 41°21' E 002°10'0 0.0
2018-May-21 09:00N 41°21' E 002°10'0 0.0
2018-May-21 08:30N 41°21' E 002°10'0 0.0
2018-May-21 08:00N 41°21' E 002°10'0 0.0
2018-May-21 07:30N 41°21' E 002°10'0 0.0
2018-May-21 07:00N 41°21' E 002°10'0 0.0
2018-May-21 06:30N 41°21' E 002°10'0 0.0
2018-May-21 06:01N 41°21' E 002°10'0 0.0
2018-May-21 05:30N 41°21' E 002°10'1 1.7
2018-May-21 04:59N 41°20' E 002°10'4 8.4
2018-May-21 04:31N 41°16' E 002°11'816.6
2018-May-21 04:00N 41°08' E 002°08'13218.9
2018-May-20 21:00N 38°58' E 001°37'917.5
2018-May-20 20:30N 38°54' E 001°27'0 0.5
2018-May-20 20:00N 38°54' E 001°27'0 0.0
2018-May-20 19:13N 38°54' E 001°27'0 0.0
2018-May-20 18:54N 38°54' E 001°27'0 0.0
2018-May-20 18:29N 38°54' E 001°27'0 0.0
2018-May-20 18:00N 38°54' E 001°27'0 0.0
2018-May-20 17:27N 38°54' E 001°27'0 0.0
2018-May-20 15:53N 38°54' E 001°27'0 0.0
2018-May-20 15:27N 38°54' E 001°27'0 0.0
2018-May-20 15:00N 38°54' E 001°27'0 0.0
2018-May-20 14:17N 38°54' E 001°27'0 0.0
2018-May-20 13:56N 38°54' E 001°27'0 0.0
2018-May-20 13:28N 38°54' E 001°27'0 0.0
2018-May-20 12:58N 38°54' E 001°27'0 0.0
2018-May-20 12:23N 38°54' E 001°27'0 0.0
2018-May-20 11:59N 38°54' E 001°27'0 0.0
2018-May-20 10:50N 38°54' E 001°27'0 0.0
2018-May-20 10:30N 38°54' E 001°27'0 0.0
2018-May-20 07:26N 38°54' E 001°27'0 0.0
2018-May-20 06:57N 38°54' E 001°27'0 0.0
2018-May-20 06:10N 38°54' E 001°27'0 0.0
2018-May-20 05:54N 38°54' E 001°27'0 0.0
2018-May-20 05:14N 38°54' E 001°27'0 0.0
2018-May-20 05:00N 38°54' E 001°27'0 0.0
2018-May-20 04:28N 38°54' E 001°27'0 0.0
2018-May-20 03:40N 38°54' E 001°27'0 0.0
2018-May-20 03:29N 38°54' E 001°27'0 0.0
2018-May-20 02:58N 38°54' E 001°27'0 0.0
2018-May-20 02:23N 38°54' E 001°27'0 0.0
2018-May-20 01:52N 38°54' E 001°27'0 0.0
2018-May-20 01:27N 38°54' E 001°27'0 0.0
2018-May-19 23:52N 38°54' E 001°27'0 0.0
2018-May-19 23:28N 38°54' E 001°27'0 0.0
2018-May-19 22:55N 38°54' E 001°27'0 0.0
2018-May-19 22:26N 38°54' E 001°27'0 0.0
2018-May-19 21:58N 38°54' E 001°27'0 0.0
2018-May-19 21:06N 38°54' E 001°27'0 0.0
2018-May-19 20:57N 38°54' E 001°27'0 0.0
2018-May-19 19:42N 38°54' E 001°27'0 0.0
2018-May-19 19:25N 38°54' E 001°27'0 0.0
2018-May-19 19:00N 38°54' E 001°27'0 0.0
2018-May-19 18:01N 38°54' E 001°27'0 0.1
2018-May-19 17:56N 38°54' E 001°27'0 0.0
2018-May-19 17:25N 38°54' E 001°27'0 0.0
2018-May-19 16:55N 38°54' E 001°27'0 0.0
2018-May-19 16:29N 38°54' E 001°27'0 0.0
2018-May-19 15:57N 38°54' E 001°27'0 0.0
2018-May-19 15:29N 38°54' E 001°27'0 0.0
2018-May-19 15:00N 38°54' E 001°27'0 0.0
2018-May-19 14:25N 38°54' E 001°27'0 0.0
2018-May-19 13:57N 38°54' E 001°27'0 0.0
2018-May-19 13:28N 38°54' E 001°27'0 0.0
2018-May-19 12:56N 38°54' E 001°27'0 0.0
2018-May-19 12:29N 38°54' E 001°27'0 0.0
2018-May-19 11:59N 38°54' E 001°27'0 0.0
2018-May-19 11:26N 38°54' E 001°27'0 0.0
2018-May-19 11:00N 38°54' E 001°27'0 0.0
2018-May-19 10:30N 38°54' E 001°27'0 0.0
2018-May-19 09:55N 38°54' E 001°27'0 0.0
2018-May-19 09:29N 38°54' E 001°27'0 0.0
2018-May-19 08:58N 38°54' E 001°27'0 0.0
2018-May-19 08:30N 38°54' E 001°27'0 0.0
2018-May-19 07:58N 38°54' E 001°27'0 0.0
2018-May-19 07:30N 38°54' E 001°27'0 0.0
2018-May-19 07:00N 38°54' E 001°27'0 0.0
2018-May-19 06:23N 38°54' E 001°27'0 0.0
2018-May-19 05:58N 38°54' E 001°27'0 0.0
2018-May-19 05:30N 38°54' E 001°27'0 0.0
2018-May-19 04:56N 38°54' E 001°27'3 5.6
2018-May-19 04:22N 38°55' E 001°31'719.1
2018-May-19 04:00N 38°59' E 001°39'11719.6
2018-May-18 22:00N 40°56' E 001°52'1019.4
2018-May-18 21:30N 41°04' E 001°59'1019.6
2018-May-18 21:00N 41°12' E 002°06'917.4
2018-May-18 20:30N 41°20' E 002°10'1 1.9
2018-May-18 20:01N 41°21' E 002°10'0 0.0
2018-May-18 19:31N 41°21' E 002°10'0 0.0
2018-May-18 19:01N 41°21' E 002°10'0 0.0
2018-May-18 18:30N 41°21' E 002°10'0 0.0
2018-May-18 18:00N 41°21' E 002°10'0 0.0
2018-May-18 17:30N 41°21' E 002°10'2 3.1
2018-May-18 17:01N 41°19' E 002°10'4 8.7
2018-May-18 16:31N 41°15' E 002°11'2 4.5
2018-May-18 16:00N 41°13' E 002°11'13219.8
2018-May-18 09:21N 39°03' E 001°42'719.2
2018-May-18 09:00N 38°57' E 001°37'714.7
2018-May-18 08:30N 38°54' E 001°29'1 2.6
2018-May-18 07:59N 38°54' E 001°27'0 0.0
2018-May-18 06:15N 38°54' E 001°27'0 0.0
2018-May-18 05:59N 38°54' E 001°27'0 0.0
2018-May-18 05:30N 38°54' E 001°27'0 0.0
2018-May-18 04:58N 38°54' E 001°27'0 0.1
2018-May-18 04:30N 38°54' E 001°27'4 7.6
2018-May-18 04:00N 38°55' E 001°32'13620.0
2018-May-17 21:12N 41°08' E 002°08'420.2
2018-May-17 21:01N 41°12' E 002°09'816.4
2018-May-17 20:29N 41°20' E 002°10'1 1.3
2018-May-17 20:00N 41°21' E 002°10'0 0.0
2018-May-17 19:30N 41°21' E 002°10'0 0.0
2018-May-17 19:00N 41°21' E 002°10'0 0.0
2018-May-17 18:30N 41°21' E 002°10'0 0.0
2018-May-17 18:00N 41°21' E 002°10'0 0.0
2018-May-17 17:30N 41°21' E 002°10'0 0.0
2018-May-17 17:00N 41°21' E 002°10'1 1.9
2018-May-17 16:27N 41°20' E 002°10'716.1
2018-May-17 16:00N 41°13' E 002°10'13319.4
2018-May-17 09:10N 39°02' E 001°40'319.7
2018-May-17 09:00N 38°59' E 001°39'1014.5
2018-May-17 08:18N 38°54' E 001°27'0 0.0
2018-May-17 07:53N 38°54' E 001°27'0 0.0
2018-May-17 07:28N 38°54' E 001°27'0 0.0
2018-May-17 06:10N 38°54' E 001°27'0 0.0
2018-May-17 05:55N 38°54' E 001°27'0 0.0
2018-May-17 05:25N 38°54' E 001°27'0 0.0
2018-May-17 04:58N 38°54' E 001°27'1 1.7
2018-May-17 04:20N 38°54' E 001°28'618.9
2018-May-17 04:00N 38°56' E 001°36'9619.4
2018-May-16 23:03N 40°30' E 001°60'119.8
2018-May-16 23:00N 40°31' E 002°00'1020.0
2018-May-16 22:30N 40°41' E 002°03'1120.4
2018-May-16 21:58N 40°52' E 002°05'1020.7
2018-May-16 21:29N 41°02' E 002°07'1020.2
2018-May-16 21:00N 41°11' E 002°09'917.9
2018-May-16 20:30N 41°20' E 002°10'1 1.5
2018-May-16 20:00N 41°21' E 002°09'0 0.0
2018-May-16 19:30N 41°21' E 002°09'0 0.0
2018-May-16 19:00N 41°21' E 002°09'0 0.0
2018-May-16 18:30N 41°21' E 002°09'0 0.0
2018-May-16 18:00N 41°21' E 002°09'0 0.0
2018-May-16 17:30N 41°21' E 002°09'0 0.0
2018-May-16 17:00N 41°21' E 002°09'1 1.3
2018-May-16 16:30N 41°21' E 002°10'713.5
2018-May-16 16:01N 41°14' E 002°11'13419.5
2018-May-16 09:09N 39°02' E 001°41'319.3
2018-May-16 09:00N 38°60' E 001°40'919.1
2018-May-16 08:30N 38°54' E 001°30'3 4.7
2018-May-16 07:58N 38°54' E 001°27'0 0.0
2018-May-16 07:20N 38°54' E 001°27'0 0.0
2018-May-16 06:59N 38°54' E 001°27'0 0.0
2018-May-16 06:28N 38°54' E 001°27'0 0.0
2018-May-16 05:59N 38°54' E 001°27'0 0.2
2018-May-16 04:39N 38°54' E 001°27'1 7.0
2018-May-16 04:27N 38°54' E 001°28'918.4
2018-May-16 03:59N 38°58' E 001°38'11719.7
2018-May-15 22:04N 40°53' E 002°03'420.3
2018-May-15 21:53N 40°57' E 002°04'920.3
2018-May-15 21:24N 41°06' E 002°07'819.9
2018-May-15 21:00N 41°14' E 002°09'714.0
2018-May-15 20:30N 41°21' E 002°10'0 0.9
2018-May-15 20:00N 41°21' E 002°09'0 0.0
2018-May-15 19:30N 41°21' E 002°09'0 0.0
2018-May-15 19:00N 41°21' E 002°09'0 0.0
2018-May-15 18:30N 41°21' E 002°09'0 0.0
2018-May-15 18:00N 41°21' E 002°09'0 0.0
2018-May-15 17:30N 41°21' E 002°09'0 0.0
2018-May-15 16:59N 41°21' E 002°09'1 2.7
2018-May-15 16:30N 41°19' E 002°10'815.9
2018-May-15 16:01N 41°12' E 002°10'13619.3
2018-May-15 08:59N 38°58' E 001°38'918.7
2018-May-15 08:28N 38°54' E 001°27'1 1.1
2018-May-15 07:58N 38°54' E 001°27'0 0.0
2018-May-15 07:28N 38°54' E 001°27'0 0.0
2018-May-15 06:59N 38°54' E 001°27'0 0.0
2018-May-15 06:26N 38°54' E 001°27'0 0.0
2018-May-15 05:51N 38°54' E 001°27'0 0.0
2018-May-15 05:29N 38°54' E 001°27'0 0.0
2018-May-15 05:00N 38°54' E 001°27'0 0.4
2018-May-15 04:29N 38°54' E 001°27'511.4
2018-May-15 04:00N 38°56' E 001°34'918.9
2018-May-15 03:30N 39°03' E 001°41'  
Track history (hours):
 
Tides and Currents Weather Stations Pressure Air Temp Water Temp Dewpoint Dewpoint Depression Visibility Wind Speed Wind Dir Waves Ship Positions

Napoles

Last reported at 2018-May-24 21:32 UTC. Time now 2018-May-25 02:47 UTC.
Position N 41°03' E 002°06'.

Length 186 m; draft 6.2 m.

Type: Ship. MMSI: 209106000.

Date/timePositionNaut miles runAvg speedWind from/ knotsBaromVisibWave heightAir tempDewpointWater temp
2018-May-24 21:32N 41°03' E 002°06'520.3
2018-May-24 21:17N 41°08' E 002°07'620.2
2018-May-24 21:00N 41°14' E 002°09'714.5
2018-May-24 20:30N 41°21' E 002°10'0 0.2
2018-May-24 20:00N 41°21' E 002°10'0 0.0
2018-May-24 19:30N 41°21' E 002°10'0 0.0
2018-May-24 19:00N 41°21' E 002°10'0 0.0
2018-May-24 18:30N 41°21' E 002°10'0 0.0
2018-May-24 18:00N 41°21' E 002°10'0 0.0
2018-May-24 17:30N 41°21' E 002°10'0 0.0
2018-May-24 17:00N 41°21' E 002°10'3 6.1
2018-May-24 16:30N 41°18' E 002°11'714.5
2018-May-24 16:00N 41°10' E 002°10'1018.9
2018-May-24 15:30N 41°01' E 002°08'918.0
2018-May-24 15:00N 40°52' E 002°06'11619.2
2018-May-24 08:57N 38°58' E 001°39'919.4
2018-May-24 08:30N 38°54' E 001°29'2 3.2
2018-May-24 08:00N 38°54' E 001°27'0 0.0
2018-May-24 06:51N 38°54' E 001°27'0 0.0
2018-May-24 06:29N 38°54' E 001°27'0 0.0
2018-May-24 05:58N 38°54' E 001°27'0 0.0
2018-May-24 05:29N 38°54' E 001°27'0 0.1
2018-May-24 04:43N 38°54' E 001°27'1 2.3
2018-May-24 04:28N 38°54' E 001°27'817.6
2018-May-24 04:00N 38°57' E 001°37'13219.1
2018-May-23 21:06N 41°07' E 002°09'219.5
2018-May-23 21:00N 41°09' E 002°09'919.0
2018-May-23 20:30N 41°18' E 002°10'3 5.1
2018-May-23 20:01N 41°21' E 002°10'0 0.0
2018-May-23 19:30N 41°21' E 002°10'0 0.0
2018-May-23 19:01N 41°21' E 002°10'0 0.0
2018-May-23 18:30N 41°21' E 002°10'0 0.0
2018-May-23 18:01N 41°21' E 002°10'0 0.0
2018-May-23 17:30N 41°21' E 002°10'1 1.5
2018-May-23 16:59N 41°20' E 002°10'4 8.5
2018-May-23 16:30N 41°16' E 002°11'916.7
2018-May-23 16:00N 41°08' E 002°09'12818.7
2018-May-23 09:11N 39°02' E 001°42'418.8
2018-May-23 09:00N 38°59' E 001°40'918.7
2018-May-23 08:30N 38°54' E 001°29'2 3.2
2018-May-23 07:59N 38°54' E 001°27'0 0.0
2018-May-23 07:27N 38°54' E 001°27'0 0.0
2018-May-23 06:58N 38°54' E 001°27'0 0.0
2018-May-23 06:29N 38°54' E 001°27'0 0.0
2018-May-23 05:57N 38°54' E 001°27'0 0.2
2018-May-23 04:44N 38°54' E 001°27'1 5.5
2018-May-23 04:30N 38°54' E 001°28'714.8
2018-May-23 04:01N 38°57' E 001°36'13019.5
2018-May-22 21:22N 41°05' E 002°07'720.2
2018-May-22 21:00N 41°12' E 002°09'816.9
2018-May-22 20:30N 41°20' E 002°10'1 2.1
2018-May-22 20:00N 41°21' E 002°10'0 0.0
2018-May-22 19:30N 41°21' E 002°10'0 0.0
2018-May-22 19:00N 41°21' E 002°10'0 0.0
2018-May-22 18:30N 41°21' E 002°10'0 0.0
2018-May-22 18:00N 41°21' E 002°10'0 0.0
2018-May-22 17:31N 41°21' E 002°10'0 0.0
2018-May-22 17:00N 41°21' E 002°10'1 2.0
2018-May-22 16:28N 41°20' E 002°10'714.4
2018-May-22 16:00N 41°13' E 002°11'13319.6
2018-May-22 09:13N 39°02' E 001°42'521.0
2018-May-22 08:59N 38°58' E 001°38'1018.3
2018-May-22 08:27N 38°54' E 001°27'0 0.6
2018-May-22 07:59N 38°54' E 001°27'0 0.0
2018-May-22 07:19N 38°54' E 001°27'0 0.0
2018-May-22 06:56N 38°54' E 001°27'0 0.0
2018-May-22 06:23N 38°54' E 001°27'0 0.0
2018-May-22 06:00N 38°54' E 001°27'0 0.0
2018-May-22 05:27N 38°54' E 001°27'0 0.0
2018-May-22 05:00N 38°54' E 001°27'0 0.4
2018-May-22 04:29N 38°54' E 001°27'712.9
2018-May-22 03:59N 38°56' E 001°35'13019.8
2018-May-21 21:25N 41°03' E 002°06'820.2
2018-May-21 21:00N 41°12' E 002°09'815.5
2018-May-21 20:30N 41°19' E 002°10'2 3.1
2018-May-21 20:01N 41°21' E 002°10'0 0.0
2018-May-21 19:29N 41°21' E 002°10'0 0.0
2018-May-21 19:00N 41°21' E 002°10'0 0.0
2018-May-21 18:30N 41°21' E 002°10'0 0.0
2018-May-21 18:00N 41°21' E 002°10'0 0.0
2018-May-21 17:31N 41°21' E 002°10'0 0.0
2018-May-21 16:59N 41°21' E 002°10'0 0.0
2018-May-21 16:30N 41°21' E 002°10'0 0.0
2018-May-21 16:00N 41°21' E 002°10'0 0.0
2018-May-21 15:31N 41°21' E 002°10'0 0.0
2018-May-21 14:57N 41°21' E 002°10'0 0.0
2018-May-21 14:30N 41°21' E 002°10'0 0.0
2018-May-21 14:00N 41°21' E 002°10'0 0.0
2018-May-21 13:30N 41°21' E 002°10'0 0.0
2018-May-21 13:00N 41°21' E 002°10'0 0.0
2018-May-21 12:30N 41°21' E 002°10'0 0.0
2018-May-21 12:00N 41°21' E 002°10'0 0.0
2018-May-21 11:31N 41°21' E 002°10'0 0.0
2018-May-21 11:01N 41°21' E 002°10'0 0.0
2018-May-21 10:30N 41°21' E 002°10'0 0.0
2018-May-21 10:00N 41°21' E 002°10'0 0.0
2018-May-21 09:30N 41°21' E 002°10'0 0.0
2018-May-21 09:00N 41°21' E 002°10'0 0.0
2018-May-21 08:30N 41°21' E 002°10'0 0.0
2018-May-21 08:00N 41°21' E 002°10'0 0.0
2018-May-21 07:30N 41°21' E 002°10'0 0.0
2018-May-21 07:00N 41°21' E 002°10'0 0.0
2018-May-21 06:30N 41°21' E 002°10'0 0.0
2018-May-21 06:01N 41°21' E 002°10'0 0.0
2018-May-21 05:30N 41°21' E 002°10'1 1.7
2018-May-21 04:59N 41°20' E 002°10'4 8.4
2018-May-21 04:31N 41°16' E 002°11'816.6
2018-May-21 04:00N 41°08' E 002°08'13218.9
2018-May-20 21:00N 38°58' E 001°37'917.5
2018-May-20 20:30N 38°54' E 001°27'0 0.5
2018-May-20 20:00N 38°54' E 001°27'0 0.0
2018-May-20 19:13N 38°54' E 001°27'0 0.0
2018-May-20 18:54N 38°54' E 001°27'0 0.0
2018-May-20 18:29N 38°54' E 001°27'0 0.0
2018-May-20 18:00N 38°54' E 001°27'0 0.0
2018-May-20 17:27N 38°54' E 001°27'0 0.0
2018-May-20 15:53N 38°54' E 001°27'0 0.0
2018-May-20 15:27N 38°54' E 001°27'0 0.0
2018-May-20 15:00N 38°54' E 001°27'0 0.0
2018-May-20 14:17N 38°54' E 001°27'0 0.0
2018-May-20 13:56N 38°54' E 001°27'0 0.0
2018-May-20 13:28N 38°54' E 001°27'0 0.0
2018-May-20 12:58N 38°54' E 001°27'0 0.0
2018-May-20 12:23N 38°54' E 001°27'0 0.0
2018-May-20 11:59N 38°54' E 001°27'0 0.0
2018-May-20 10:50N 38°54' E 001°27'0 0.0
2018-May-20 10:30N 38°54' E 001°27'0 0.0
2018-May-20 07:26N 38°54' E 001°27'0 0.0
2018-May-20 06:57N 38°54' E 001°27'0 0.0
2018-May-20 06:10N 38°54' E 001°27'0 0.0
2018-May-20 05:54N 38°54' E 001°27'0 0.0
2018-May-20 05:14N 38°54' E 001°27'0 0.0
2018-May-20 05:00N 38°54' E 001°27'0 0.0
2018-May-20 04:28N 38°54' E 001°27'0 0.0
2018-May-20 03:40N 38°54' E 001°27'0 0.0
2018-May-20 03:29N 38°54' E 001°27'0 0.0
2018-May-20 02:58N 38°54' E 001°27'0 0.0
2018-May-20 02:23N 38°54' E 001°27'0 0.0
2018-May-20 01:52N 38°54' E 001°27'0 0.0
2018-May-20 01:27N 38°54' E 001°27'0 0.0
2018-May-19 23:52N 38°54' E 001°27'0 0.0
2018-May-19 23:28N 38°54' E 001°27'0 0.0
2018-May-19 22:55N 38°54' E 001°27'0 0.0
2018-May-19 22:26N 38°54' E 001°27'0 0.0
2018-May-19 21:58N 38°54' E 001°27'0 0.0
2018-May-19 21:06N 38°54' E 001°27'0 0.0
2018-May-19 20:57N 38°54' E 001°27'0 0.0
2018-May-19 19:42N 38°54' E 001°27'0 0.0
2018-May-19 19:25N 38°54' E 001°27'0 0.0
2018-May-19 19:00N 38°54' E 001°27'0 0.0
2018-May-19 18:01N 38°54' E 001°27'0 0.1
2018-May-19 17:56N 38°54' E 001°27'0 0.0
2018-May-19 17:25N 38°54' E 001°27'0 0.0
2018-May-19 16:55N 38°54' E 001°27'0 0.0
2018-May-19 16:29N 38°54' E 001°27'0 0.0
2018-May-19 15:57N 38°54' E 001°27'0 0.0
2018-May-19 15:29N 38°54' E 001°27'0 0.0
2018-May-19 15:00N 38°54' E 001°27'0 0.0
2018-May-19 14:25N 38°54' E 001°27'0 0.0
2018-May-19 13:57N 38°54' E 001°27'0 0.0
2018-May-19 13:28N 38°54' E 001°27'0 0.0
2018-May-19 12:56N 38°54' E 001°27'0 0.0
2018-May-19 12:29N 38°54' E 001°27'0 0.0
2018-May-19 11:59N 38°54' E 001°27'0 0.0
2018-May-19 11:26N 38°54' E 001°27'0 0.0
2018-May-19 11:00N 38°54' E 001°27'0 0.0
2018-May-19 10:30N 38°54' E 001°27'0 0.0
2018-May-19 09:55N 38°54' E 001°27'0 0.0
2018-May-19 09:29N 38°54' E 001°27'0 0.0
2018-May-19 08:58N 38°54' E 001°27'0 0.0
2018-May-19 08:30N 38°54' E 001°27'0 0.0
2018-May-19 07:58N 38°54' E 001°27'0 0.0
2018-May-19 07:30N 38°54' E 001°27'0 0.0
2018-May-19 07:00N 38°54' E 001°27'0 0.0
2018-May-19 06:23N 38°54' E 001°27'0 0.0
2018-May-19 05:58N 38°54' E 001°27'0 0.0
2018-May-19 05:30N 38°54' E 001°27'0 0.0
2018-May-19 04:56N 38°54' E 001°27'3 5.6
2018-May-19 04:22N 38°55' E 001°31'719.1
2018-May-19 04:00N 38°59' E 001°39'11719.6
2018-May-18 22:00N 40°56' E 001°52'1019.4
2018-May-18 21:30N 41°04' E 001°59'1019.6
2018-May-18 21:00N 41°12' E 002°06'917.4
2018-May-18 20:30N 41°20' E 002°10'1 1.9
2018-May-18 20:01N 41°21' E 002°10'0 0.0
2018-May-18 19:31N 41°21' E 002°10'0 0.0
2018-May-18 19:01N 41°21' E 002°10'0 0.0
2018-May-18 18:30N 41°21' E 002°10'0 0.0
2018-May-18 18:00N 41°21' E 002°10'0 0.0
2018-May-18 17:30N 41°21' E 002°10'2 3.1
2018-May-18 17:01N 41°19' E 002°10'4 8.7
2018-May-18 16:31N 41°15' E 002°11'2 4.5
2018-May-18 16:00N 41°13' E 002°11'13219.8
2018-May-18 09:21N 39°03' E 001°42'719.2
2018-May-18 09:00N 38°57' E 001°37'714.7
2018-May-18 08:30N 38°54' E 001°29'1 2.6
2018-May-18 07:59N 38°54' E 001°27'0 0.0
2018-May-18 06:15N 38°54' E 001°27'0 0.0
2018-May-18 05:59N 38°54' E 001°27'0 0.0
2018-May-18 05:30N 38°54' E 001°27'0 0.0
2018-May-18 04:58N 38°54' E 001°27'0 0.1
2018-May-18 04:30N 38°54' E 001°27'4 7.6
2018-May-18 04:00N 38°55' E 001°32'13620.0
2018-May-17 21:12N 41°08' E 002°08'420.2
2018-May-17 21:01N 41°12' E 002°09'816.4
2018-May-17 20:29N 41°20' E 002°10'1 1.3
2018-May-17 20:00N 41°21' E 002°10'0 0.0
2018-May-17 19:30N 41°21' E 002°10'0 0.0
2018-May-17 19:00N 41°21' E 002°10'0 0.0
2018-May-17 18:30N 41°21' E 002°10'0 0.0
2018-May-17 18:00N 41°21' E 002°10'0 0.0
2018-May-17 17:30N 41°21' E 002°10'0 0.0
2018-May-17 17:00N 41°21' E 002°10'1 1.9
2018-May-17 16:27N 41°20' E 002°10'716.1
2018-May-17 16:00N 41°13' E 002°10'13319.4
2018-May-17 09:10N 39°02' E 001°40'319.7
2018-May-17 09:00N 38°59' E 001°39'1014.5
2018-May-17 08:18N 38°54' E 001°27'0 0.0
2018-May-17 07:53N 38°54' E 001°27'0 0.0
2018-May-17 07:28N 38°54' E 001°27'0 0.0
2018-May-17 06:10N 38°54' E 001°27'0 0.0
2018-May-17 05:55N 38°54' E 001°27'0 0.0
2018-May-17 05:25N 38°54' E 001°27'0 0.0
2018-May-17 04:58N 38°54' E 001°27'1 1.7
2018-May-17 04:20N 38°54' E 001°28'618.9
2018-May-17 04:00N 38°56' E 001°36'9619.4
2018-May-16 23:03N 40°30' E 001°60'119.8
2018-May-16 23:00N 40°31' E 002°00'1020.0
2018-May-16 22:30N 40°41' E 002°03'1120.4
2018-May-16 21:58N 40°52' E 002°05'1020.7
2018-May-16 21:29N 41°02' E 002°07'1020.2
2018-May-16 21:00N 41°11' E 002°09'917.9
2018-May-16 20:30N 41°20' E 002°10'1 1.5
2018-May-16 20:00N 41°21' E 002°09'0 0.0
2018-May-16 19:30N 41°21' E 002°09'0 0.0
2018-May-16 19:00N 41°21' E 002°09'0 0.0
2018-May-16 18:30N 41°21' E 002°09'0 0.0
2018-May-16 18:00N 41°21' E 002°09'0 0.0
2018-May-16 17:30N 41°21' E 002°09'0 0.0
2018-May-16 17:00N 41°21' E 002°09'1 1.3
2018-May-16 16:30N 41°21' E 002°10'713.5
2018-May-16 16:01N 41°14' E 002°11'13419.5
2018-May-16 09:09N 39°02' E 001°41'319.3
2018-May-16 09:00N 38°60' E 001°40'919.1
2018-May-16 08:30N 38°54' E 001°30'3 4.7
2018-May-16 07:58N 38°54' E 001°27'0 0.0
2018-May-16 07:20N 38°54' E 001°27'0 0.0
2018-May-16 06:59N 38°54' E 001°27'0 0.0
2018-May-16 06:28N 38°54' E 001°27'0 0.0
2018-May-16 05:59N 38°54' E 001°27'0 0.2
2018-May-16 04:39N 38°54' E 001°27'1 7.0
2018-May-16 04:27N 38°54' E 001°28'918.4
2018-May-16 03:59N 38°58' E 001°38'11719.7
2018-May-15 22:04N 40°53' E 002°03'420.3
2018-May-15 21:53N 40°57' E 002°04'920.3
2018-May-15 21:24N 41°06' E 002°07'819.9
2018-May-15 21:00N 41°14' E 002°09'714.0
2018-May-15 20:30N 41°21' E 002°10'0 0.9
2018-May-15 20:00N 41°21' E 002°09'0 0.0
2018-May-15 19:30N 41°21' E 002°09'0 0.0
2018-May-15 19:00N 41°21' E 002°09'0 0.0
2018-May-15 18:30N 41°21' E 002°09'0 0.0
2018-May-15 18:00N 41°21' E 002°09'0 0.0
2018-May-15 17:30N 41°21' E 002°09'0 0.0
2018-May-15 16:59N 41°21' E 002°09'1 2.7
2018-May-15 16:30N 41°19' E 002°10'815.9
2018-May-15 16:01N 41°12' E 002°10'13619.3
2018-May-15 08:59N 38°58' E 001°38'918.7
2018-May-15 08:28N 38°54' E 001°27'1 1.1
2018-May-15 07:58N 38°54' E 001°27'0 0.0
2018-May-15 07:28N 38°54' E 001°27'0 0.0
2018-May-15 06:59N 38°54' E 001°27'0 0.0
2018-May-15 06:26N 38°54' E 001°27'0 0.0
2018-May-15 05:51N 38°54' E 001°27'0 0.0
2018-May-15 05:29N 38°54' E 001°27'0 0.0
2018-May-15 05:00N 38°54' E 001°27'0 0.4
2018-May-15 04:29N 38°54' E 001°27'511.4
2018-May-15 04:00N 38°56' E 001°34'918.9
2018-May-15 03:30N 39°03' E 001°41'  

Dump ship's entire track history